sensor_id;sensor_type;location;lat;lon;timestamp;temperature;humidity
32865;DHT22;19219;44.500;11.188;2024-01-30T00:01:29;-0.20;99.90
32865;DHT22;19219;44.500;11.188;2024-01-30T00:03:54;-0.20;99.90
32865;DHT22;19219;44.500;11.188;2024-01-30T00:06:20;-0.20;99.90
32865;DHT22;19219;44.500;11.188;2024-01-30T00:08:47;-0.30;99.90
32865;DHT22;19219;44.500;11.188;2024-01-30T00:11:14;-0.20;99.90
32865;DHT22;19219;44.500;11.188;2024-01-30T00:13:40;-0.30;99.90
32865;DHT22;19219;44.500;11.188;2024-01-30T00:16:06;-0.30;99.90
32865;DHT22;19219;44.500;11.188;2024-01-30T00:18:32;-0.30;99.90
32865;DHT22;19219;44.500;11.188;2024-01-30T00:20:58;-0.30;99.90
32865;DHT22;19219;44.500;11.188;2024-01-30T00:23:23;-0.30;99.90
32865;DHT22;19219;44.500;11.188;2024-01-30T00:25:50;-0.30;99.90
32865;DHT22;19219;44.500;11.188;2024-01-30T00:28:16;-0.30;99.90
32865;DHT22;19219;44.500;11.188;2024-01-30T00:30:41;-0.30;99.90
32865;DHT22;19219;44.500;11.188;2024-01-30T00:33:08;-0.30;99.90
32865;DHT22;19219;44.500;11.188;2024-01-30T00:35:34;-0.20;99.90
32865;DHT22;19219;44.500;11.188;2024-01-30T00:37:59;-0.20;99.90
32865;DHT22;19219;44.500;11.188;2024-01-30T00:40:25;-0.30;99.90
32865;DHT22;19219;44.500;11.188;2024-01-30T00:42:51;-0.30;99.90
32865;DHT22;19219;44.500;11.188;2024-01-30T00:45:16;-0.30;99.90
32865;DHT22;19219;44.500;11.188;2024-01-30T00:47:43;-0.30;99.90
32865;DHT22;19219;44.500;11.188;2024-01-30T00:50:09;-0.30;99.90
32865;DHT22;19219;44.500;11.188;2024-01-30T00:52:35;-0.50;99.90
32865;DHT22;19219;44.500;11.188;2024-01-30T00:55:01;-0.50;99.90
32865;DHT22;19219;44.500;11.188;2024-01-30T00:57:26;-0.50;99.90
32865;DHT22;19219;44.500;11.188;2024-01-30T00:59:52;-0.50;99.90
32865;DHT22;19219;44.500;11.188;2024-01-30T01:02:18;-0.50;99.90
32865;DHT22;19219;44.500;11.188;2024-01-30T01:04:45;-0.50;99.90
32865;DHT22;19219;44.500;11.188;2024-01-30T01:07:11;-0.50;99.90
32865;DHT22;19219;44.500;11.188;2024-01-30T01:09:37;-0.50;99.90
32865;DHT22;19219;44.500;11.188;2024-01-30T01:12:03;-0.50;99.90
32865;DHT22;19219;44.500;11.188;2024-01-30T01:14:30;-0.50;99.90
32865;DHT22;19219;44.500;11.188;2024-01-30T01:16:55;-0.60;99.90
32865;DHT22;19219;44.500;11.188;2024-01-30T01:19:21;-0.60;99.90
32865;DHT22;19219;44.500;11.188;2024-01-30T01:21:47;-0.60;99.90
32865;DHT22;19219;44.500;11.188;2024-01-30T01:24:13;-0.50;99.90
32865;DHT22;19219;44.500;11.188;2024-01-30T01:26:39;-0.50;99.90
32865;DHT22;19219;44.500;11.188;2024-01-30T01:29:06;-0.50;99.90
32865;DHT22;19219;44.500;11.188;2024-01-30T01:31:38;-0.40;99.90
32865;DHT22;19219;44.500;11.188;2024-01-30T01:34:11;-0.40;99.90
32865;DHT22;19219;44.500;11.188;2024-01-30T01:36:38;-0.40;99.90
32865;DHT22;19219;44.500;11.188;2024-01-30T01:39:03;-0.40;99.90
32865;DHT22;19219;44.500;11.188;2024-01-30T01:41:31;-0.50;99.90
32865;DHT22;19219;44.500;11.188;2024-01-30T01:43:57;-0.50;99.90
32865;DHT22;19219;44.500;11.188;2024-01-30T01:46:26;-0.70;99.90
32865;DHT22;19219;44.500;11.188;2024-01-30T01:48:51;-0.60;99.90
32865;DHT22;19219;44.500;11.188;2024-01-30T01:51:18;-0.60;99.90
32865;DHT22;19219;44.500;11.188;2024-01-30T01:53:44;-0.60;99.90
32865;DHT22;19219;44.500;11.188;2024-01-30T01:56:10;-0.80;99.90
32865;DHT22;19219;44.500;11.188;2024-01-30T01:58:37;-0.90;99.90
32865;DHT22;19219;44.500;11.188;2024-01-30T02:01:04;-0.90;99.90
32865;DHT22;19219;44.500;11.188;2024-01-30T02:03:30;-0.90;99.90
32865;DHT22;19219;44.500;11.188;2024-01-30T02:05:56;-0.80;99.90
32865;DHT22;19219;44.500;11.188;2024-01-30T02:08:23;-0.90;99.90
32865;DHT22;19219;44.500;11.188;2024-01-30T02:10:49;-1.00;99.90
32865;DHT22;19219;44.500;11.188;2024-01-30T02:13:15;-1.00;99.90
32865;DHT22;19219;44.500;11.188;2024-01-30T02:15:40;-1.10;99.90
32865;DHT22;19219;44.500;11.188;2024-01-30T02:18:06;-1.00;99.90
32865;DHT22;19219;44.500;11.188;2024-01-30T02:20:34;-0.90;99.90
32865;DHT22;19219;44.500;11.188;2024-01-30T02:23:01;-0.80;99.90
32865;DHT22;19219;44.500;11.188;2024-01-30T02:25:33;-0.80;99.90
32865;DHT22;19219;44.500;11.188;2024-01-30T02:27:59;-0.80;99.90
32865;DHT22;19219;44.500;11.188;2024-01-30T02:30:24;-0.70;99.90
32865;DHT22;19219;44.500;11.188;2024-01-30T02:32:50;-0.70;99.90
32865;DHT22;19219;44.500;11.188;2024-01-30T02:35:16;-0.60;99.90
32865;DHT22;19219;44.500;11.188;2024-01-30T02:37:41;-0.60;99.90
32865;DHT22;19219;44.500;11.188;2024-01-30T02:40:07;-0.60;99.90
32865;DHT22;19219;44.500;11.188;2024-01-30T02:42:33;-0.60;99.90
32865;DHT22;19219;44.500;11.188;2024-01-30T02:44:59;-0.50;99.90
32865;DHT22;19219;44.500;11.188;2024-01-30T02:47:24;-0.60;99.90
32865;DHT22;19219;44.500;11.188;2024-01-30T02:49:50;-0.50;99.90
32865;DHT22;19219;44.500;11.188;2024-01-30T02:52:16;-0.60;99.90
32865;DHT22;19219;44.500;11.188;2024-01-30T02:54:41;-0.60;99.90
32865;DHT22;19219;44.500;11.188;2024-01-30T02:57:07;-0.80;99.90
32865;DHT22;19219;44.500;11.188;2024-01-30T02:59:33;-0.90;99.90
32865;DHT22;19219;44.500;11.188;2024-01-30T03:02:01;-1.00;99.90
32865;DHT22;19219;44.500;11.188;2024-01-30T03:04:27;-1.10;99.90
32865;DHT22;19219;44.500;11.188;2024-01-30T03:06:52;-1.20;99.90
32865;DHT22;19219;44.500;11.188;2024-01-30T03:09:18;-1.20;99.90
32865;DHT22;19219;44.500;11.188;2024-01-30T03:11:44;-1.10;99.90
32865;DHT22;19219;44.500;11.188;2024-01-30T03:14:09;-1.10;99.90
32865;DHT22;19219;44.500;11.188;2024-01-30T03:16:38;-1.10;99.90
32865;DHT22;19219;44.500;11.188;2024-01-30T03:19:06;-1.10;99.90
32865;DHT22;19219;44.500;11.188;2024-01-30T03:21:33;-1.00;99.90
32865;DHT22;19219;44.500;11.188;2024-01-30T03:23:59;-1.10;99.90
32865;DHT22;19219;44.500;11.188;2024-01-30T03:26:25;-1.10;99.90
32865;DHT22;19219;44.500;11.188;2024-01-30T03:28:51;-1.20;99.90
32865;DHT22;19219;44.500;11.188;2024-01-30T03:31:16;-1.20;99.90
32865;DHT22;19219;44.500;11.188;2024-01-30T03:33:42;-1.40;99.90
32865;DHT22;19219;44.500;11.188;2024-01-30T03:36:09;-1.40;99.90
32865;DHT22;19219;44.500;11.188;2024-01-30T03:38:35;-1.50;99.90
32865;DHT22;19219;44.500;11.188;2024-01-30T03:41:01;-1.50;99.90
32865;DHT22;19219;44.500;11.188;2024-01-30T03:43:27;-1.50;99.90
32865;DHT22;19219;44.500;11.188;2024-01-30T03:45:53;-1.50;99.90
32865;DHT22;19219;44.500;11.188;2024-01-30T03:48:19;-1.50;99.90
32865;DHT22;19219;44.500;11.188;2024-01-30T03:50:45;-1.60;99.90
32865;DHT22;19219;44.500;11.188;2024-01-30T03:53:11;-1.50;99.90
32865;DHT22;19219;44.500;11.188;2024-01-30T03:55:36;-1.50;99.90
32865;DHT22;19219;44.500;11.188;2024-01-30T03:58:02;-1.50;99.90
32865;DHT22;19219;44.500;11.188;2024-01-30T04:00:28;-1.50;99.90
32865;DHT22;19219;44.500;11.188;2024-01-30T04:02:53;-1.40;99.90
32865;DHT22;19219;44.500;11.188;2024-01-30T04:05:19;-1.50;99.90
32865;DHT22;19219;44.500;11.188;2024-01-30T04:07:45;-1.50;99.90
32865;DHT22;19219;44.500;11.188;2024-01-30T04:10:10;-1.50;99.90
32865;DHT22;19219;44.500;11.188;2024-01-30T04:12:36;-1.50;99.90
32865;DHT22;19219;44.500;11.188;2024-01-30T04:15:02;-1.50;99.90
32865;DHT22;19219;44.500;11.188;2024-01-30T04:17:29;-1.40;99.90
32865;DHT22;19219;44.500;11.188;2024-01-30T04:19:55;-1.50;99.90
32865;DHT22;19219;44.500;11.188;2024-01-30T04:22:21;-1.50;99.90
32865;DHT22;19219;44.500;11.188;2024-01-30T04:24:46;-1.60;99.90
32865;DHT22;19219;44.500;11.188;2024-01-30T04:27:12;-1.70;99.90
32865;DHT22;19219;44.500;11.188;2024-01-30T04:29:38;-1.80;99.90
32865;DHT22;19219;44.500;11.188;2024-01-30T04:32:04;-1.80;99.90
32865;DHT22;19219;44.500;11.188;2024-01-30T04:34:30;-1.90;99.90
32865;DHT22;19219;44.500;11.188;2024-01-30T04:36:55;-2.00;99.90
32865;DHT22;19219;44.500;11.188;2024-01-30T04:39:21;-2.00;99.90
32865;DHT22;19219;44.500;11.188;2024-01-30T04:41:48;-2.00;99.90
32865;DHT22;19219;44.500;11.188;2024-01-30T04:44:14;-1.90;99.90
32865;DHT22;19219;44.500;11.188;2024-01-30T04:46:39;-2.00;99.90
32865;DHT22;19219;44.500;11.188;2024-01-30T04:49:05;-1.90;99.90
32865;DHT22;19219;44.500;11.188;2024-01-30T04:51:33;-2.00;99.90
32865;DHT22;19219;44.500;11.188;2024-01-30T04:53:59;-2.00;99.90
32865;DHT22;19219;44.500;11.188;2024-01-30T04:56:24;-2.00;99.90
32865;DHT22;19219;44.500;11.188;2024-01-30T04:58:50;-2.00;99.90
32865;DHT22;19219;44.500;11.188;2024-01-30T05:01:16;-1.90;99.90
32865;DHT22;19219;44.500;11.188;2024-01-30T05:03:42;-1.90;99.90
32865;DHT22;19219;44.500;11.188;2024-01-30T05:06:08;-1.90;99.90
32865;DHT22;19219;44.500;11.188;2024-01-30T05:08:33;-1.90;99.90
32865;DHT22;19219;44.500;11.188;2024-01-30T05:11:02;-1.90;99.90
32865;DHT22;19219;44.500;11.188;2024-01-30T05:13:32;-1.90;99.90
32865;DHT22;19219;44.500;11.188;2024-01-30T05:15:58;-2.00;99.90
32865;DHT22;19219;44.500;11.188;2024-01-30T05:18:24;-1.90;99.90
32865;DHT22;19219;44.500;11.188;2024-01-30T05:20:50;-1.90;99.90
32865;DHT22;19219;44.500;11.188;2024-01-30T05:23:16;-1.90;99.90
32865;DHT22;19219;44.500;11.188;2024-01-30T05:25:43;-2.00;99.90
32865;DHT22;19219;44.500;11.188;2024-01-30T05:28:09;-2.10;99.90
32865;DHT22;19219;44.500;11.188;2024-01-30T05:30:35;-2.10;99.90
32865;DHT22;19219;44.500;11.188;2024-01-30T05:33:00;-2.20;99.90
32865;DHT22;19219;44.500;11.188;2024-01-30T05:35:26;-2.20;99.90
32865;DHT22;19219;44.500;11.188;2024-01-30T05:37:55;-2.20;99.90
32865;DHT22;19219;44.500;11.188;2024-01-30T05:40:21;-2.20;99.90
32865;DHT22;19219;44.500;11.188;2024-01-30T05:42:48;-2.20;99.90
32865;DHT22;19219;44.500;11.188;2024-01-30T05:45:13;-2.10;99.90
32865;DHT22;19219;44.500;11.188;2024-01-30T05:47:39;-2.10;99.90
32865;DHT22;19219;44.500;11.188;2024-01-30T05:50:05;-2.10;99.90
32865;DHT22;19219;44.500;11.188;2024-01-30T05:52:31;-2.10;99.90
32865;DHT22;19219;44.500;11.188;2024-01-30T05:54:57;-2.10;99.90
32865;DHT22;19219;44.500;11.188;2024-01-30T05:57:23;-2.20;99.90
32865;DHT22;19219;44.500;11.188;2024-01-30T05:59:48;-2.20;99.90
32865;DHT22;19219;44.500;11.188;2024-01-30T06:02:14;-2.30;99.90
32865;DHT22;19219;44.500;11.188;2024-01-30T06:04:40;-2.20;99.90
32865;DHT22;19219;44.500;11.188;2024-01-30T06:07:05;-2.40;99.90
32865;DHT22;19219;44.500;11.188;2024-01-30T06:09:31;-2.40;99.90
32865;DHT22;19219;44.500;11.188;2024-01-30T06:11:57;-2.40;99.90
32865;DHT22;19219;44.500;11.188;2024-01-30T06:14:23;-2.40;99.90
32865;DHT22;19219;44.500;11.188;2024-01-30T06:16:49;-2.50;99.90
32865;DHT22;19219;44.500;11.188;2024-01-30T06:19:15;-2.60;99.90
32865;DHT22;19219;44.500;11.188;2024-01-30T06:21:41;-2.60;99.90
32865;DHT22;19219;44.500;11.188;2024-01-30T06:24:06;-2.70;99.90
32865;DHT22;19219;44.500;11.188;2024-01-30T06:26:32;-2.70;99.90
32865;DHT22;19219;44.500;11.188;2024-01-30T06:28:58;-2.60;99.90
32865;DHT22;19219;44.500;11.188;2024-01-30T06:31:23;-2.50;99.90
32865;DHT22;19219;44.500;11.188;2024-01-30T06:33:49;-2.40;99.90
32865;DHT22;19219;44.500;11.188;2024-01-30T06:36:16;-2.30;99.90
32865;DHT22;19219;44.500;11.188;2024-01-30T06:38:41;-2.30;99.90
32865;DHT22;19219;44.500;11.188;2024-01-30T06:41:07;-2.20;99.90
32865;DHT22;19219;44.500;11.188;2024-01-30T06:43:33;-2.10;99.90
32865;DHT22;19219;44.500;11.188;2024-01-30T06:45:59;-2.20;99.90
32865;DHT22;19219;44.500;11.188;2024-01-30T06:48:25;-2.20;99.90
32865;DHT22;19219;44.500;11.188;2024-01-30T06:50:53;-2.20;99.90
32865;DHT22;19219;44.500;11.188;2024-01-30T06:53:19;-2.20;99.90
32865;DHT22;19219;44.500;11.188;2024-01-30T06:55:45;-2.20;99.90
32865;DHT22;19219;44.500;11.188;2024-01-30T06:58:11;-2.20;99.90
32865;DHT22;19219;44.500;11.188;2024-01-30T07:00:37;-2.20;99.90
32865;DHT22;19219;44.500;11.188;2024-01-30T07:03:03;-2.20;99.90
32865;DHT22;19219;44.500;11.188;2024-01-30T07:05:28;-2.10;99.90
32865;DHT22;19219;44.500;11.188;2024-01-30T07:07:54;-2.20;99.90
32865;DHT22;19219;44.500;11.188;2024-01-30T07:10:20;-2.10;99.90
32865;DHT22;19219;44.500;11.188;2024-01-30T07:12:46;-2.10;99.90
32865;DHT22;19219;44.500;11.188;2024-01-30T07:15:11;-2.00;99.90
32865;DHT22;19219;44.500;11.188;2024-01-30T07:17:40;-2.00;99.90
32865;DHT22;19219;44.500;11.188;2024-01-30T07:20:06;-2.00;99.90
32865;DHT22;19219;44.500;11.188;2024-01-30T07:22:34;-1.80;99.90
32865;DHT22;19219;44.500;11.188;2024-01-30T07:24:59;-1.70;99.90
32865;DHT22;19219;44.500;11.188;2024-01-30T07:27:25;-1.70;99.90
32865;DHT22;19219;44.500;11.188;2024-01-30T07:29:51;-1.70;99.90
32865;DHT22;19219;44.500;11.188;2024-01-30T07:32:16;-1.80;99.90
32865;DHT22;19219;44.500;11.188;2024-01-30T07:34:42;-1.70;99.90
32865;DHT22;19219;44.500;11.188;2024-01-30T07:37:08;-1.70;99.90
32865;DHT22;19219;44.500;11.188;2024-01-30T07:39:34;-1.50;99.90
32865;DHT22;19219;44.500;11.188;2024-01-30T07:42:00;-1.50;99.90
32865;DHT22;19219;44.500;11.188;2024-01-30T07:44:25;-1.40;99.90
32865;DHT22;19219;44.500;11.188;2024-01-30T07:46:51;-1.30;99.90
32865;DHT22;19219;44.500;11.188;2024-01-30T07:49:17;-1.10;99.90
32865;DHT22;19219;44.500;11.188;2024-01-30T07:51:42;-0.90;99.90
32865;DHT22;19219;44.500;11.188;2024-01-30T07:54:15;-0.60;99.90
32865;DHT22;19219;44.500;11.188;2024-01-30T07:56:41;-0.40;99.90
32865;DHT22;19219;44.500;11.188;2024-01-30T07:59:10;-0.20;99.90
32865;DHT22;19219;44.500;11.188;2024-01-30T08:01:36;-0.10;99.90
32865;DHT22;19219;44.500;11.188;2024-01-30T08:04:02;0.10;99.90
32865;DHT22;19219;44.500;11.188;2024-01-30T08:06:28;0.20;99.90
32865;DHT22;19219;44.500;11.188;2024-01-30T08:08:53;0.50;99.90
32865;DHT22;19219;44.500;11.188;2024-01-30T08:11:22;0.70;99.90
32865;DHT22;19219;44.500;11.188;2024-01-30T08:13:55;0.90;99.90
32865;DHT22;19219;44.500;11.188;2024-01-30T08:16:20;1.10;99.90
32865;DHT22;19219;44.500;11.188;2024-01-30T08:18:46;1.90;99.90
32865;DHT22;19219;44.500;11.188;2024-01-30T08:21:12;3.30;99.90
32865;DHT22;19219;44.500;11.188;2024-01-30T08:23:40;4.70;99.90
32865;DHT22;19219;44.500;11.188;2024-01-30T08:26:06;6.20;99.90
32865;DHT22;19219;44.500;11.188;2024-01-30T08:28:32;7.30;99.90
32865;DHT22;19219;44.500;11.188;2024-01-30T08:30:58;8.40;99.90
32865;DHT22;19219;44.500;11.188;2024-01-30T08:33:24;9.80;99.90
32865;DHT22;19219;44.500;11.188;2024-01-30T08:35:49;10.90;99.90
32865;DHT22;19219;44.500;11.188;2024-01-30T08:38:15;11.40;99.90
32865;DHT22;19219;44.500;11.188;2024-01-30T08:40:41;11.70;99.90
32865;DHT22;19219;44.500;11.188;2024-01-30T08:43:06;12.30;98.50
32865;DHT22;19219;44.500;11.188;2024-01-30T08:45:33;12.90;96.50
32865;DHT22;19219;44.500;11.188;2024-01-30T08:47:59;13.20;94.20
32865;DHT22;19219;44.500;11.188;2024-01-30T08:50:25;13.40;93.20
32865;DHT22;19219;44.500;11.188;2024-01-30T08:52:50;13.70;92.40
32865;DHT22;19219;44.500;11.188;2024-01-30T08:55:16;13.80;91.00
32865;DHT22;19219;44.500;11.188;2024-01-30T08:57:41;14.60;89.60
32865;DHT22;19219;44.500;11.188;2024-01-30T09:00:07;13.90;88.30
32865;DHT22;19219;44.500;11.188;2024-01-30T09:02:34;14.10;87.80
32865;DHT22;19219;44.500;11.188;2024-01-30T09:05:00;14.50;87.50
32865;DHT22;19219;44.500;11.188;2024-01-30T09:07:26;14.30;85.80
32865;DHT22;19219;44.500;11.188;2024-01-30T09:09:51;14.70;85.70
32865;DHT22;19219;44.500;11.188;2024-01-30T09:12:17;14.80;84.60
32865;DHT22;19219;44.500;11.188;2024-01-30T09:14:43;14.70;83.00
32865;DHT22;19219;44.500;11.188;2024-01-30T09:17:09;14.80;83.00
32865;DHT22;19219;44.500;11.188;2024-01-30T09:19:34;15.70;82.30
32865;DHT22;19219;44.500;11.188;2024-01-30T09:22:00;16.20;79.70
32865;DHT22;19219;44.500;11.188;2024-01-30T09:24:28;16.00;79.10
32865;DHT22;19219;44.500;11.188;2024-01-30T09:26:53;16.00;78.30
32865;DHT22;19219;44.500;11.188;2024-01-30T09:29:19;16.20;78.40
32865;DHT22;19219;44.500;11.188;2024-01-30T09:31:45;16.60;78.00
32865;DHT22;19219;44.500;11.188;2024-01-30T09:34:12;17.10;78.40
32865;DHT22;19219;44.500;11.188;2024-01-30T09:36:37;17.30;75.00
32865;DHT22;19219;44.500;11.188;2024-01-30T09:39:03;17.70;73.90
32865;DHT22;19219;44.500;11.188;2024-01-30T09:41:32;18.10;74.00
32865;DHT22;19219;44.500;11.188;2024-01-30T09:43:59;18.00;71.00
32865;DHT22;19219;44.500;11.188;2024-01-30T09:46:27;17.80;71.10
32865;DHT22;19219;44.500;11.188;2024-01-30T09:48:55;18.10;72.60
32865;DHT22;19219;44.500;11.188;2024-01-30T09:51:21;18.30;70.70
32865;DHT22;19219;44.500;11.188;2024-01-30T09:53:48;18.00;68.00
32865;DHT22;19219;44.500;11.188;2024-01-30T09:56:14;17.90;70.20
32865;DHT22;19219;44.500;11.188;2024-01-30T09:58:40;17.90;68.60
32865;DHT22;19219;44.500;11.188;2024-01-30T10:01:07;18.10;70.80
32865;DHT22;19219;44.500;11.188;2024-01-30T10:03:33;18.40;68.80
32865;DHT22;19219;44.500;11.188;2024-01-30T10:05:59;18.80;68.30
32865;DHT22;19219;44.500;11.188;2024-01-30T10:08:26;19.00;65.20
32865;DHT22;19219;44.500;11.188;2024-01-30T10:10:52;19.20;66.90
32865;DHT22;19219;44.500;11.188;2024-01-30T10:13:18;19.30;65.30
32865;DHT22;19219;44.500;11.188;2024-01-30T10:15:44;19.20;64.30
32865;DHT22;19219;44.500;11.188;2024-01-30T10:18:10;18.80;64.10
32865;DHT22;19219;44.500;11.188;2024-01-30T10:20:37;19.20;64.70
32865;DHT22;19219;44.500;11.188;2024-01-30T10:23:03;19.30;65.00
32865;DHT22;19219;44.500;11.188;2024-01-30T10:25:30;19.10;62.70
32865;DHT22;19219;44.500;11.188;2024-01-30T10:27:59;18.50;63.00
32865;DHT22;19219;44.500;11.188;2024-01-30T10:30:25;18.90;64.10
32865;DHT22;19219;44.500;11.188;2024-01-30T10:32:51;19.00;61.30
32865;DHT22;19219;44.500;11.188;2024-01-30T10:35:17;18.90;62.30
32865;DHT22;19219;44.500;11.188;2024-01-30T10:37:48;18.90;61.60
32865;DHT22;19219;44.500;11.188;2024-01-30T10:40:14;18.60;61.00
32865;DHT22;19219;44.500;11.188;2024-01-30T10:42:45;18.90;60.10
32865;DHT22;19219;44.500;11.188;2024-01-30T10:45:13;19.10;59.30
32865;DHT22;19219;44.500;11.188;2024-01-30T10:47:48;19.00;58.90
32865;DHT22;19219;44.500;11.188;2024-01-30T10:50:14;18.80;59.20
32865;DHT22;19219;44.500;11.188;2024-01-30T10:52:41;18.90;58.40
32865;DHT22;19219;44.500;11.188;2024-01-30T10:55:10;18.10;58.40
32865;DHT22;19219;44.500;11.188;2024-01-30T10:57:37;18.60;59.50
32865;DHT22;19219;44.500;11.188;2024-01-30T11:00:06;18.40;58.10
32865;DHT22;19219;44.500;11.188;2024-01-30T11:02:40;17.60;60.50
32865;DHT22;19219;44.500;11.188;2024-01-30T11:05:07;18.10;60.40
32865;DHT22;19219;44.500;11.188;2024-01-30T11:07:33;17.80;61.30
32865;DHT22;19219;44.500;11.188;2024-01-30T11:10:00;18.00;61.90
32865;DHT22;19219;44.500;11.188;2024-01-30T11:12:27;18.10;59.80
32865;DHT22;19219;44.500;11.188;2024-01-30T11:17:50;16.50;62.20
32865;DHT22;19219;44.500;11.188;2024-01-30T11:20:26;15.40;64.30
32865;DHT22;19219;44.500;11.188;2024-01-30T11:22:55;14.20;66.30
32865;DHT22;19219;44.500;11.188;2024-01-30T11:25:22;13.60;68.50
32865;DHT22;19219;44.500;11.188;2024-01-30T11:27:50;13.50;69.70
32865;DHT22;19219;44.500;11.188;2024-01-30T11:33:02;12.70;72.60
32865;DHT22;19219;44.500;11.188;2024-01-30T11:35:33;12.20;73.20
32865;DHT22;19219;44.500;11.188;2024-01-30T11:37:59;12.10;76.00
32865;DHT22;19219;44.500;11.188;2024-01-30T11:40:28;12.10;77.50
32865;DHT22;19219;44.500;11.188;2024-01-30T11:42:55;12.30;79.30
32865;DHT22;19219;44.500;11.188;2024-01-30T11:45:20;12.20;79.40
32865;DHT22;19219;44.500;11.188;2024-01-30T11:47:46;12.20;80.20
32865;DHT22;19219;44.500;11.188;2024-01-30T11:50:12;12.40;79.10
32865;DHT22;19219;44.500;11.188;2024-01-30T11:52:38;12.30;79.90
32865;DHT22;19219;44.500;11.188;2024-01-30T11:55:04;12.40;80.90
32865;DHT22;19219;44.500;11.188;2024-01-30T11:57:30;12.30;80.70
32865;DHT22;19219;44.500;11.188;2024-01-30T11:59:56;12.30;81.00
32865;DHT22;19219;44.500;11.188;2024-01-30T12:02:21;12.40;81.00
32865;DHT22;19219;44.500;11.188;2024-01-30T12:04:47;12.40;80.60
32865;DHT22;19219;44.500;11.188;2024-01-30T12:07:13;12.10;80.30
32865;DHT22;19219;44.500;11.188;2024-01-30T12:09:41;12.10;78.90
32865;DHT22;19219;44.500;11.188;2024-01-30T12:12:08;11.90;80.00
32865;DHT22;19219;44.500;11.188;2024-01-30T12:14:38;11.60;80.70
32865;DHT22;19219;44.500;11.188;2024-01-30T12:17:05;11.70;81.30
32865;DHT22;19219;44.500;11.188;2024-01-30T12:19:30;11.70;81.20
32865;DHT22;19219;44.500;11.188;2024-01-30T12:21:57;11.50;82.40
32865;DHT22;19219;44.500;11.188;2024-01-30T12:24:27;11.50;81.70
32865;DHT22;19219;44.500;11.188;2024-01-30T12:26:59;11.60;82.60
32865;DHT22;19219;44.500;11.188;2024-01-30T12:29:24;11.40;84.20
32865;DHT22;19219;44.500;11.188;2024-01-30T12:31:53;11.50;86.40
32865;DHT22;19219;44.500;11.188;2024-01-30T12:34:19;11.50;85.00
32865;DHT22;19219;44.500;11.188;2024-01-30T12:36:47;11.60;85.80
32865;DHT22;19219;44.500;11.188;2024-01-30T12:39:14;11.50;84.90
32865;DHT22;19219;44.500;11.188;2024-01-30T12:41:40;11.40;85.30
32865;DHT22;19219;44.500;11.188;2024-01-30T12:44:06;11.30;84.60
32865;DHT22;19219;44.500;11.188;2024-01-30T12:46:34;11.40;86.00
32865;DHT22;19219;44.500;11.188;2024-01-30T12:49:00;11.40;86.10
32865;DHT22;19219;44.500;11.188;2024-01-30T12:51:26;11.40;86.70
32865;DHT22;19219;44.500;11.188;2024-01-30T12:53:52;11.30;88.30
32865;DHT22;19219;44.500;11.188;2024-01-30T12:56:17;11.30;89.10
32865;DHT22;19219;44.500;11.188;2024-01-30T12:58:43;11.30;89.70
32865;DHT22;19219;44.500;11.188;2024-01-30T13:01:09;11.20;90.40
32865;DHT22;19219;44.500;11.188;2024-01-30T13:03:35;11.10;90.40
32865;DHT22;19219;44.500;11.188;2024-01-30T13:06:01;11.00;91.00
32865;DHT22;19219;44.500;11.188;2024-01-30T13:08:27;10.90;91.10
32865;DHT22;19219;44.500;11.188;2024-01-30T13:10:52;10.80;91.10
32865;DHT22;19219;44.500;11.188;2024-01-30T13:13:18;10.70;91.30
32865;DHT22;19219;44.500;11.188;2024-01-30T13:15:44;10.70;92.10
32865;DHT22;19219;44.500;11.188;2024-01-30T13:18:09;10.60;92.70
32865;DHT22;19219;44.500;11.188;2024-01-30T13:20:35;10.60;92.60
32865;DHT22;19219;44.500;11.188;2024-01-30T13:23:01;10.60;93.30
32865;DHT22;19219;44.500;11.188;2024-01-30T13:25:27;10.70;93.70
32865;DHT22;19219;44.500;11.188;2024-01-30T13:27:52;10.80;93.90
32865;DHT22;19219;44.500;11.188;2024-01-30T13:30:18;10.90;94.00
32865;DHT22;19219;44.500;11.188;2024-01-30T13:32:43;11.00;94.10
32865;DHT22;19219;44.500;11.188;2024-01-30T13:35:10;11.00;94.20
32865;DHT22;19219;44.500;11.188;2024-01-30T13:37:35;10.90;94.70
32865;DHT22;19219;44.500;11.188;2024-01-30T13:40:05;10.70;95.20
32865;DHT22;19219;44.500;11.188;2024-01-30T13:42:34;10.70;96.00
32865;DHT22;19219;44.500;11.188;2024-01-30T13:45:00;10.70;95.90
32865;DHT22;19219;44.500;11.188;2024-01-30T13:47:25;10.70;96.20
32865;DHT22;19219;44.500;11.188;2024-01-30T13:49:51;10.90;96.20
32865;DHT22;19219;44.500;11.188;2024-01-30T13:52:18;10.90;96.50
32865;DHT22;19219;44.500;11.188;2024-01-30T13:54:44;10.90;96.60
32865;DHT22;19219;44.500;11.188;2024-01-30T13:57:10;10.90;96.60
32865;DHT22;19219;44.500;11.188;2024-01-30T13:59:37;11.00;96.70
32865;DHT22;19219;44.500;11.188;2024-01-30T14:02:03;11.10;96.70
32865;DHT22;19219;44.500;11.188;2024-01-30T14:04:28;11.10;95.70
32865;DHT22;19219;44.500;11.188;2024-01-30T14:06:54;11.10;96.20
32865;DHT22;19219;44.500;11.188;2024-01-30T14:09:20;10.90;96.10
32865;DHT22;19219;44.500;11.188;2024-01-30T14:11:46;11.10;96.40
32865;DHT22;19219;44.500;11.188;2024-01-30T14:14:12;11.10;96.10
32865;DHT22;19219;44.500;11.188;2024-01-30T14:16:38;11.20;96.30
32865;DHT22;19219;44.500;11.188;2024-01-30T14:19:03;11.30;95.90
32865;DHT22;19219;44.500;11.188;2024-01-30T14:21:29;11.30;95.70
32865;DHT22;19219;44.500;11.188;2024-01-30T14:23:55;11.30;95.30
32865;DHT22;19219;44.500;11.188;2024-01-30T14:26:20;11.20;94.90
32865;DHT22;19219;44.500;11.188;2024-01-30T14:28:46;11.10;95.30
32865;DHT22;19219;44.500;11.188;2024-01-30T14:31:12;10.90;95.30
32865;DHT22;19219;44.500;11.188;2024-01-30T14:33:39;11.00;95.30
32865;DHT22;19219;44.500;11.188;2024-01-30T14:36:05;10.90;95.00
32865;DHT22;19219;44.500;11.188;2024-01-30T14:38:30;10.90;94.90
32865;DHT22;19219;44.500;11.188;2024-01-30T14:40:56;10.90;94.80
32865;DHT22;19219;44.500;11.188;2024-01-30T14:43:22;11.00;94.60
32865;DHT22;19219;44.500;11.188;2024-01-30T14:45:48;11.00;94.30
32865;DHT22;19219;44.500;11.188;2024-01-30T14:48:15;11.20;93.70
32865;DHT22;19219;44.500;11.188;2024-01-30T14:50:41;11.20;93.30
32865;DHT22;19219;44.500;11.188;2024-01-30T14:53:06;11.10;92.90
32865;DHT22;19219;44.500;11.188;2024-01-30T14:55:33;11.10;92.60
32865;DHT22;19219;44.500;11.188;2024-01-30T14:57:59;11.10;92.40
32865;DHT22;19219;44.500;11.188;2024-01-30T15:00:25;11.10;92.40
32865;DHT22;19219;44.500;11.188;2024-01-30T15:02:50;11.20;92.30
32865;DHT22;19219;44.500;11.188;2024-01-30T15:05:16;11.20;92.00
32865;DHT22;19219;44.500;11.188;2024-01-30T15:07:42;11.20;91.80
32865;DHT22;19219;44.500;11.188;2024-01-30T15:10:08;11.20;91.80
32865;DHT22;19219;44.500;11.188;2024-01-30T15:12:35;11.20;91.80
32865;DHT22;19219;44.500;11.188;2024-01-30T15:15:01;11.10;92.00
32865;DHT22;19219;44.500;11.188;2024-01-30T15:17:27;11.00;92.20